createdAt,value
2022-09-28T00:00:42.990Z,7.19
2022-09-28T00:01:43.332Z,7.21
2022-09-28T00:02:43.451Z,7.21
2022-09-28T00:03:42.956Z,7.22
2022-09-28T00:04:42.950Z,7.22
2022-09-28T00:05:42.915Z,7.21
2022-09-28T00:06:42.640Z,7.19
2022-09-28T00:07:42.627Z,7.27
2022-09-28T00:08:42.609Z,7.22
2022-09-28T00:09:42.597Z,7.19
2022-09-28T00:10:42.587Z,7.19
2022-09-28T00:11:42.828Z,7.16
2022-09-28T00:12:42.805Z,7.18
2022-09-28T00:13:42.544Z,7.26
2022-09-28T00:14:42.536Z,7.18
2022-09-28T00:15:42.255Z,7.13
2022-09-28T00:16:43.015Z,7.21
2022-09-28T00:17:42.600Z,7.13
2022-09-28T00:18:42.794Z,7.22
2022-09-28T00:19:42.781Z,7.22
2022-09-28T00:20:42.538Z,7.18
2022-09-28T00:21:42.491Z,7.19
2022-09-28T00:22:42.477Z,7.19
2022-09-28T00:23:42.717Z,7.26
2022-09-28T00:24:42.698Z,7.27
2022-09-28T00:25:42.178Z,7.26
2022-09-28T00:26:42.673Z,7.31
2022-09-28T00:27:42.151Z,7.29
2022-09-28T00:28:42.648Z,7.4
2022-09-28T00:29:42.116Z,7.29
2022-09-28T00:30:42.696Z,7.34
2022-09-28T00:31:42.522Z,7.37
2022-09-28T00:32:42.330Z,7.27
2022-09-28T00:33:42.618Z,7.37
2022-09-28T00:34:42.053Z,7.29
2022-09-28T00:35:42.684Z,7.27
2022-09-28T00:36:42.956Z,7.23
2022-09-28T00:37:43.172Z,7.27
2022-09-28T00:38:43.161Z,7.26
2022-09-28T00:39:42.716Z,7.27
2022-09-28T00:40:42.741Z,7.23
2022-09-28T00:41:42.604Z,7.19
2022-09-28T00:42:42.849Z,7.26
2022-09-28T00:43:42.573Z,7.15
2022-09-28T00:44:42.822Z,7.21
2022-09-28T00:45:42.797Z,7.19
2022-09-28T00:46:43.049Z,7.16
2022-09-28T00:47:43.025Z,7.15
2022-09-28T00:48:43.013Z,7.16
2022-09-28T00:49:42.790Z,7.16
2022-09-28T00:50:42.989Z,7.12
2022-09-28T00:51:42.709Z,7.08
2022-09-28T00:52:42.975Z,7.04
2022-09-28T00:53:42.680Z,7.09
2022-09-28T00:54:42.935Z,7.05
2022-09-28T00:55:42.649Z,7.05
2022-09-28T00:56:42.649Z,7.04
2022-09-28T00:57:42.876Z,7.03
2022-09-28T00:58:42.353Z,7.08
2022-09-28T00:59:42.847Z,7.05
2022-09-28T01:00:42.433Z,7
2022-09-28T01:01:42.807Z,6.98
2022-09-28T01:02:42.292Z,6.98
2022-09-28T01:03:42.532Z,6.97
2022-09-28T01:04:42.261Z,6.98
2022-09-28T01:05:42.814Z,7.03
2022-09-28T01:06:42.235Z,6.98
2022-09-28T01:07:42.218Z,7
2022-09-28T01:08:42.495Z,7.03
2022-09-28T01:09:42.448Z,6.91
2022-09-28T01:10:42.174Z,6.9
2022-09-28T01:11:42.171Z,6.94
2022-09-28T01:12:42.402Z,6.82
2022-09-28T01:13:42.657Z,6.9
2022-09-28T01:14:42.373Z,6.72
2022-09-28T01:15:42.360Z,6.7
2022-09-28T01:16:42.974Z,6.7
2022-09-28T01:17:42.590Z,6.61
2022-09-28T01:18:42.569Z,6.57
2022-09-28T01:19:42.048Z,6.6
2022-09-28T01:20:42.286Z,6.55
2022-09-28T01:21:42.579Z,6.52
2022-09-28T01:22:42.253Z,6.57
2022-09-28T01:23:42.240Z,6.44
2022-09-28T01:24:42.249Z,6.43
2022-09-28T01:25:42.210Z,6.37
2022-09-28T01:26:42.195Z,6.34
2022-09-28T01:27:42.182Z,6.28
2022-09-28T01:28:42.424Z,6.28
2022-09-28T01:29:41.901Z,6.2
2022-09-28T01:30:42.398Z,6.13
2022-09-28T01:31:43.313Z,6.15
2022-09-28T01:32:43.315Z,6.05
2022-09-28T01:34:42.803Z,6.05
2022-09-28T01:35:43.269Z,5.98
2022-09-28T01:36:43.248Z,5.99
2022-09-28T01:37:43.277Z,5.99
2022-09-28T01:38:43.220Z,5.95
2022-09-28T01:39:43.207Z,5.89
2022-09-28T01:40:43.178Z,6
2022-09-28T01:41:42.917Z,5.91
2022-09-28T01:42:42.899Z,5.88
2022-09-28T01:43:42.626Z,5.87
2022-09-28T01:44:42.616Z,5.84
2022-09-28T01:45:42.723Z,5.77
2022-09-28T01:46:43.089Z,5.8
2022-09-28T01:47:43.080Z,5.75
2022-09-28T01:48:42.569Z,5.73
2022-09-28T01:49:42.791Z,5.73
2022-09-28T01:50:43.047Z,5.72
2022-09-28T01:51:43.017Z,5.72
2022-09-28T01:52:43.068Z,5.75
2022-09-28T01:53:43.608Z,5.77
2022-09-28T01:54:43.286Z,5.77
2022-09-28T01:55:43.523Z,5.82
2022-09-28T01:56:43.556Z,5.81
2022-09-28T01:57:43.243Z,5.77
2022-09-28T01:58:43.224Z,5.75
2022-09-28T01:59:43.463Z,5.89
2022-09-28T02:00:43.373Z,5.89
2022-09-28T02:01:43.754Z,5.92
2022-09-28T02:02:42.916Z,5.95
2022-09-28T02:03:43.396Z,5.89
2022-09-28T02:04:43.384Z,5.95
2022-09-28T02:05:43.114Z,5.88
2022-09-28T02:06:43.351Z,5.78
2022-09-28T02:07:43.083Z,5.81
2022-09-28T02:08:43.332Z,5.84
2022-09-28T02:09:43.366Z,5.77
2022-09-28T02:10:43.296Z,5.72
2022-09-28T02:11:43.276Z,5.72
2022-09-28T02:12:43.299Z,5.8
2022-09-28T02:13:42.995Z,5.78
2022-09-28T02:14:42.996Z,5.73
2022-09-28T02:15:43.213Z,5.69
2022-09-28T02:16:43.297Z,5.67
2022-09-28T02:17:42.677Z,5.73
2022-09-28T02:18:43.168Z,5.69
2022-09-28T02:19:42.899Z,5.77
2022-09-28T02:20:42.886Z,5.72
2022-09-28T02:21:42.864Z,5.72
2022-09-28T02:22:42.599Z,5.82
2022-09-28T02:23:43.088Z,5.8
2022-09-28T02:24:42.826Z,5.91
2022-09-28T02:25:43.114Z,5.88
2022-09-28T02:26:42.787Z,5.89
2022-09-28T02:27:42.767Z,6.02
2022-09-28T02:28:42.819Z,6.05
2022-09-28T02:29:42.997Z,6.06
2022-09-28T02:30:43.043Z,6.05
2022-09-28T02:31:42.993Z,6.07
2022-09-28T02:32:42.752Z,6.06
2022-09-28T02:33:42.932Z,6.02
2022-09-28T02:34:42.409Z,5.96
2022-09-28T02:35:42.390Z,5.99
2022-09-28T02:36:42.678Z,5.98
2022-09-28T02:37:42.657Z,5.99
2022-09-28T02:38:42.639Z,5.87
2022-09-28T02:39:42.883Z,5.91
2022-09-28T02:40:42.894Z,5.98
2022-09-28T02:41:42.903Z,5.89
2022-09-28T02:42:42.586Z,5.89
2022-09-28T02:43:42.565Z,5.87
2022-09-28T02:44:42.601Z,5.96
2022-09-28T02:45:43.229Z,5.96
2022-09-28T02:46:42.777Z,5.99
2022-09-28T02:47:42.244Z,5.91
2022-09-28T02:49:20.098Z,5.98
2022-09-28T02:49:42.469Z,5.96
2022-09-28T02:50:42.717Z,5.99
2022-09-28T02:51:42.692Z,6
2022-09-28T02:52:42.424Z,5.95
2022-09-28T02:53:42.420Z,5.85
2022-09-28T02:54:42.397Z,5.87
2022-09-28T02:55:42.379Z,5.96
2022-09-28T02:56:42.619Z,5.98
2022-09-28T02:57:42.665Z,5.89
2022-09-28T02:58:42.337Z,5.98
2022-09-28T02:59:42.314Z,5.88
2022-09-28T03:00:42.739Z,6.02
2022-09-28T03:01:42.358Z,5.88
2022-09-28T03:02:42.531Z,5.96
2022-09-28T03:03:42.595Z,5.92
2022-09-28T03:04:42.491Z,6.05
2022-09-28T03:05:42.480Z,5.89
2022-09-28T03:06:41.950Z,5.92
2022-09-28T03:07:42.191Z,5.99
2022-09-28T03:08:42.433Z,5.95
2022-09-28T03:09:42.160Z,6.05
2022-09-28T03:10:42.148Z,5.96
2022-09-28T03:11:42.399Z,6.06
2022-09-28T03:12:41.863Z,6.02
2022-09-28T03:13:42.150Z,5.98
2022-09-28T03:14:42.086Z,6.02
2022-09-28T03:15:44.196Z,5.98
2022-09-28T03:16:42.271Z,6.05
2022-09-28T03:17:41.793Z,6
2022-09-28T03:18:41.765Z,5.99
2022-09-28T03:19:42.261Z,5.98
2022-09-28T03:20:41.984Z,5.98
2022-09-28T03:21:42.236Z,5.99
2022-09-28T03:22:41.708Z,6
2022-09-28T03:23:41.687Z,6
2022-09-28T03:24:42.182Z,5.99
2022-09-28T03:25:42.171Z,5.99
2022-09-28T03:26:42.152Z,5.92
2022-09-28T03:27:41.885Z,5.99
2022-09-28T03:28:41.865Z,5.98
2022-09-28T03:29:41.905Z,6.02
2022-09-28T03:30:41.845Z,5.96
2022-09-28T03:31:42.318Z,6.03
2022-09-28T03:32:41.836Z,5.99
2022-09-28T03:50:05.138Z,5.98
2022-09-28T03:51:05.055Z,5.89
2022-09-28T03:52:04.757Z,5.91
2022-09-28T03:53:05.107Z,5.88
2022-09-28T03:54:04.976Z,5.89
2022-09-28T03:55:04.697Z,5.99
2022-09-28T03:56:04.691Z,5.88
2022-09-28T03:57:04.925Z,5.88
2022-09-28T03:58:04.663Z,6.05
2022-09-28T03:59:04.926Z,5.92
2022-09-28T04:00:04.467Z,5.92
2022-09-28T04:01:04.918Z,5.91
2022-09-28T04:02:05.105Z,5.91
2022-09-28T04:03:04.589Z,5.98
2022-09-28T04:04:04.549Z,5.95
2022-09-28T04:05:04.536Z,5.99
2022-09-28T04:06:04.859Z,5.99
2022-09-28T04:07:04.523Z,5.99
2022-09-28T04:08:04.486Z,6
2022-09-28T04:09:04.472Z,6.03
2022-09-28T04:10:04.209Z,5.98
2022-09-28T04:11:04.183Z,5.96
2022-09-28T04:12:09.065Z,5.99
2022-09-28T04:13:04.664Z,6.05
2022-09-28T04:14:04.411Z,6.06
2022-09-28T04:15:04.629Z,5.99
2022-09-28T04:16:04.683Z,6.14
2022-09-28T04:17:04.350Z,6.09
2022-09-28T04:18:04.339Z,6.13
2022-09-28T04:19:04.067Z,6.09
2022-09-28T04:20:04.317Z,6.14
2022-09-28T04:21:04.546Z,6.1
2022-09-28T04:22:04.596Z,6.09
2022-09-28T04:23:04.246Z,6.1
2022-09-28T04:24:04.237Z,6.14
2022-09-28T04:25:03.962Z,6.17
2022-09-28T04:26:04.476Z,6.17
2022-09-28T04:27:04.186Z,6.15
2022-09-28T04:28:04.171Z,6.18
2022-09-28T04:29:10.243Z,6.17
2022-09-28T04:30:04.155Z,6.2
2022-09-28T04:31:04.161Z,6.18
2022-09-28T04:32:04.586Z,6.14
2022-09-28T04:33:04.096Z,6.25
2022-09-28T04:34:03.825Z,6.21
2022-09-28T04:35:04.063Z,6.29
2022-09-28T04:36:04.301Z,6.26
2022-09-28T04:37:04.031Z,6.33
2022-09-28T04:38:04.344Z,6.34
2022-09-28T04:39:04.004Z,6.37
2022-09-28T04:40:04.253Z,6.37
2022-09-28T04:41:04.375Z,6.43
2022-09-28T04:42:03.704Z,6.28
2022-09-28T04:43:03.682Z,6.34
2022-09-28T04:44:04.186Z,6.37
2022-09-28T04:45:03.909Z,6.39
2022-09-28T04:46:04.162Z,6.42
2022-09-28T04:47:08.855Z,6.42
2022-09-28T04:48:04.118Z,6.39
2022-09-28T04:49:04.112Z,6.42
2022-09-28T04:50:03.836Z,6.44
2022-09-28T04:51:03.822Z,6.39
2022-09-28T04:52:04.056Z,6.44
2022-09-28T04:53:03.792Z,6.4
2022-09-28T04:54:04.108Z,6.47
2022-09-28T04:55:03.759Z,6.51
2022-09-28T04:56:03.754Z,6.46
2022-09-28T04:57:03.986Z,6.49
2022-09-28T04:58:03.967Z,6.39
2022-09-28T04:59:03.955Z,6.49
2022-09-28T05:00:03.685Z,6.42
2022-09-28T05:01:04.118Z,6.44
2022-09-28T05:02:04.109Z,6.46
2022-09-28T05:03:03.888Z,6.54
2022-09-28T05:04:03.625Z,6.55
2022-09-28T05:05:03.607Z,6.57
2022-09-28T05:06:03.330Z,6.47
2022-09-28T05:07:03.312Z,6.44
2022-09-28T05:08:03.558Z,6.52
2022-09-28T05:09:03.802Z,6.51
2022-09-28T05:10:03.884Z,6.52
2022-09-28T05:11:03.509Z,6.52
2022-09-28T05:12:03.497Z,6.55
2022-09-28T05:13:03.231Z,6.47
2022-09-28T05:14:03.462Z,6.46
2022-09-28T05:15:03.798Z,6.49
2022-09-28T05:16:09.896Z,6.51
2022-09-28T05:17:04.199Z,6.47
2022-09-28T05:18:04.015Z,6.57
2022-09-28T05:19:03.740Z,6.47
2022-09-28T05:20:04.235Z,6.52
2022-09-28T05:21:04.221Z,6.47
2022-09-28T05:22:04.210Z,6.55
2022-09-28T05:23:03.931Z,6.49
2022-09-28T05:24:03.950Z,6.54
2022-09-28T05:25:04.218Z,6.49
2022-09-28T05:26:04.216Z,6.44
2022-09-28T05:27:03.874Z,6.49
2022-09-28T05:28:04.119Z,6.46
2022-09-28T05:29:03.838Z,6.47
2022-09-28T05:30:04.092Z,6.52
2022-09-28T05:31:03.818Z,6.52
2022-09-28T05:32:04.063Z,6.44
2022-09-28T05:33:04.051Z,6.52
2022-09-28T05:34:03.766Z,6.42
2022-09-28T05:35:03.759Z,6.49
2022-09-28T05:36:06.029Z,6.49
2022-09-28T05:37:03.469Z,6.57
2022-09-28T05:38:03.958Z,6.52
2022-09-28T05:39:03.689Z,6.49
2022-09-28T05:40:03.415Z,6.54
2022-09-28T05:41:09.406Z,6.52
2022-09-28T05:42:03.673Z,6.46
2022-09-28T05:43:03.627Z,6.43
2022-09-28T05:44:03.614Z,6.58
2022-09-28T05:45:03.616Z,6.61
2022-09-28T05:46:03.748Z,6.49
2022-09-28T05:47:03.824Z,6.55
2022-09-28T05:48:03.580Z,6.52
2022-09-28T05:49:03.542Z,6.49
2022-09-28T05:50:03.522Z,6.49
2022-09-28T05:51:03.504Z,6.49
2022-09-28T05:52:03.511Z,6.55
2022-09-28T05:53:03.738Z,6.6
2022-09-28T05:54:09.989Z,6.54
2022-09-28T05:55:03.191Z,6.61
2022-09-28T05:56:03.709Z,6.54
2022-09-28T05:57:03.464Z,6.57
2022-09-28T05:58:03.424Z,6.49
2022-09-28T05:59:03.389Z,6.46
2022-09-28T06:00:03.636Z,6.46
2022-09-28T06:01:03.596Z,6.49
2022-09-28T06:02:03.569Z,6.54
2022-09-28T06:03:09.070Z,6.49
2022-09-28T06:04:03.059Z,6.47
2022-09-28T06:05:03.307Z,6.51
2022-09-28T06:06:03.302Z,6.61
2022-09-28T06:07:03.013Z,6.46
2022-09-28T06:08:03.251Z,6.52
2022-09-28T06:09:03.271Z,6.52
2022-09-28T06:10:03.487Z,6.52
2022-09-28T06:11:03.206Z,6.55
2022-09-28T06:12:02.929Z,6.52
2022-09-28T06:13:03.477Z,6.55
2022-09-28T06:14:03.191Z,6.55
2022-09-28T06:15:03.140Z,6.54
2022-09-28T06:16:03.133Z,6.52
2022-09-28T06:17:03.171Z,6.54
2022-09-28T06:18:02.840Z,6.62
2022-09-28T06:19:03.343Z,6.55
2022-09-28T06:20:02.806Z,6.57
2022-09-28T06:21:03.070Z,6.61
2022-09-28T06:22:04.046Z,6.6
2022-09-28T06:23:03.023Z,6.64
2022-09-28T06:24:03.267Z,6.55
2022-09-28T06:25:03.028Z,6.61
2022-09-28T06:26:03.240Z,6.57
2022-09-28T06:27:02.710Z,6.65
2022-09-28T06:28:02.953Z,6.6
2022-09-28T06:29:03.244Z,6.64
2022-09-28T06:30:02.939Z,6.7
2022-09-28T06:31:03.519Z,6.64
2022-09-28T06:32:03.146Z,6.67
2022-09-28T06:33:02.869Z,6.67
2022-09-28T06:34:02.857Z,6.64
2022-09-28T06:35:02.871Z,6.75
2022-09-28T06:36:02.570Z,6.72
2022-09-28T06:37:02.820Z,6.67
2022-09-28T06:38:02.796Z,6.68
2022-09-28T06:39:02.779Z,6.7
2022-09-28T06:40:02.769Z,6.82
2022-09-28T06:41:03.230Z,6.78
2022-09-28T06:42:02.738Z,6.86
2022-09-28T06:43:02.733Z,6.83
2022-09-28T06:44:02.963Z,6.94
2022-09-28T06:45:02.763Z,6.9
2022-09-28T06:46:02.998Z,7
2022-09-28T06:47:02.663Z,7.05
2022-09-28T06:48:02.905Z,7.05
2022-09-28T06:49:02.886Z,7.18
2022-09-28T06:50:02.623Z,7.29
2022-09-28T06:51:02.343Z,7.21
2022-09-28T06:52:02.849Z,7.22
2022-09-28T06:53:02.319Z,7.23
2022-09-28T06:54:02.561Z,7.23
2022-09-28T06:55:02.796Z,7.19
2022-09-28T06:56:02.795Z,7.23
2022-09-28T06:57:02.764Z,7.26
2022-09-28T06:58:02.253Z,7.26
2022-09-28T06:59:02.482Z,7.3
2022-09-28T07:00:02.728Z,7.29
2022-09-28T07:01:03.078Z,7.29
2022-09-28T07:02:02.933Z,7.37
2022-09-28T07:03:02.449Z,7.39
2022-09-28T07:04:02.411Z,7.41
2022-09-28T07:05:02.660Z,7.31
2022-09-28T07:06:02.390Z,7.31
2022-09-28T07:07:02.624Z,7.31
2022-09-28T07:08:02.613Z,7.34
2022-09-28T07:09:36.919Z,7.39
2022-09-28T07:10:02.581Z,7.31
2022-09-28T07:11:02.566Z,7.4
2022-09-28T07:12:02.055Z,7.48
2022-09-28T07:13:02.226Z,7.44
2022-09-28T07:14:02.013Z,7.33
2022-09-28T07:15:02.528Z,7.4
2022-09-28T07:16:02.242Z,7.44
2022-09-28T07:17:18.113Z,7.4
2022-09-28T07:18:07.498Z,7.41
2022-09-28T07:19:02.450Z,7.52
2022-09-28T07:20:19.523Z,7.47
2022-09-28T07:21:02.198Z,7.49
2022-09-28T07:22:10.172Z,7.54
2022-09-28T07:23:20.356Z,7.54
2022-09-28T07:24:02.122Z,7.63
2022-09-28T07:25:01.855Z,7.67
2022-09-28T07:26:02.528Z,7.8
2022-09-28T07:27:02.078Z,7.86
2022-09-28T07:28:02.070Z,7.8
2022-09-28T07:29:02.048Z,7.78
2022-09-28T07:30:01.779Z,7.92
2022-09-28T07:31:02.434Z,7.92
2022-09-28T07:32:02.271Z,8.09
2022-09-28T07:33:02.059Z,8.1
2022-09-28T07:34:02.261Z,8.11
2022-09-28T07:35:03.905Z,8.16
2022-09-28T07:36:02.206Z,8.11
2022-09-28T07:37:01.947Z,8.1
2022-09-28T07:38:01.920Z,8.04
2022-09-28T07:39:01.909Z,8.06
2022-09-28T07:40:02.177Z,8.07
2022-09-28T07:41:02.062Z,8.16
2022-09-28T07:42:07.605Z,8.17
2022-09-28T07:43:02.108Z,8.19
2022-09-28T07:44:01.586Z,8.25
2022-09-28T07:45:01.574Z,8.31
2022-09-28T07:46:01.765Z,8.31
2022-09-28T07:47:02.054Z,8.47
2022-09-28T07:48:02.172Z,8.46
2022-09-28T07:49:02.134Z,8.49
2022-09-28T07:50:02.050Z,8.53
2022-09-28T07:51:01.485Z,8.61
2022-09-28T07:52:01.982Z,8.62
2022-09-28T07:53:01.459Z,8.67
2022-09-28T07:54:01.958Z,8.74
2022-09-28T07:55:07.497Z,8.71
2022-09-28T07:56:01.937Z,8.76
2022-09-28T07:57:01.663Z,8.77
2022-09-28T07:58:01.647Z,8.87
2022-09-28T07:59:01.884Z,8.86
2022-09-28T08:00:01.877Z,8.74
2022-09-28T08:01:01.558Z,8.71
2022-09-28T08:02:01.494Z,8.69
2022-09-28T08:03:01.576Z,8.6
2022-09-28T08:04:01.822Z,8.64
2022-09-28T08:05:01.664Z,8.61
2022-09-28T08:06:01.562Z,8.42
2022-09-28T08:07:01.522Z,8.49
2022-09-28T08:08:01.774Z,8.31
2022-09-28T08:09:01.239Z,8.4
2022-09-28T08:10:01.483Z,8.35
2022-09-28T08:11:01.484Z,8.43
2022-09-28T08:12:01.557Z,8.4
2022-09-28T08:13:06.551Z,8.32
2022-09-28T08:14:01.182Z,8.34
2022-09-28T08:15:01.672Z,8.5
2022-09-28T08:16:01.419Z,8.5
2022-09-28T08:17:01.378Z,8.6
2022-09-28T08:18:06.866Z,8.57
2022-09-28T08:19:01.359Z,8.68
2022-09-28T08:20:01.353Z,8.77
2022-09-28T08:21:01.638Z,8.79
2022-09-28T08:22:01.365Z,8.83
2022-09-28T08:23:01.562Z,8.92
2022-09-28T08:24:01.040Z,8.89
2022-09-28T08:25:01.282Z,9.01
2022-09-28T08:26:01.012Z,8.98
2022-09-28T08:27:01.505Z,9.04
2022-09-28T08:28:01.494Z,8.97
2022-09-28T08:29:01.480Z,8.94
2022-09-28T08:30:01.225Z,8.92
2022-09-28T08:31:01.523Z,8.89
2022-09-28T08:32:06.134Z,8.89
2022-09-28T08:33:01.172Z,8.83
2022-09-28T08:34:01.436Z,8.89
2022-09-28T08:35:01.422Z,8.89
2022-09-28T08:36:01.389Z,8.83
2022-09-28T08:37:01.423Z,8.85
2022-09-28T08:38:01.429Z,8.74
2022-09-28T08:39:01.374Z,8.76
2022-09-28T08:40:01.335Z,8.71
2022-09-28T08:41:01.568Z,8.58
2022-09-28T08:42:01.324Z,8.62
2022-09-28T08:43:01.055Z,8.62
2022-09-28T08:44:00.795Z,8.61
2022-09-28T08:45:01.023Z,8.47
2022-09-28T08:46:01.631Z,8.58
2022-09-28T08:47:01.244Z,8.49
2022-09-28T08:48:01.226Z,8.57
2022-09-28T08:49:29.070Z,8.58
2022-09-28T08:50:00.956Z,8.58
2022-09-28T08:51:01.185Z,8.6
2022-09-28T08:52:01.174Z,8.54
2022-09-28T08:53:01.274Z,8.53
2022-09-28T08:54:01.176Z,8.58
2022-09-28T08:55:00.884Z,8.4
2022-09-28T08:56:00.868Z,8.47
2022-09-28T08:57:01.106Z,8.49
2022-09-28T08:58:00.836Z,8.44
2022-09-28T08:59:00.831Z,8.4
2022-09-28T09:00:00.843Z,8.47
2022-09-28T09:01:01.023Z,8.57
2022-09-28T09:02:02.957Z,8.72
2022-09-28T09:03:00.765Z,8.92
2022-09-28T09:04:00.758Z,9.04
2022-09-28T09:05:00.744Z,9.23
2022-09-28T09:06:00.743Z,9.39
2022-09-28T09:07:00.722Z,9.55
2022-09-28T09:08:00.968Z,9.71
2022-09-28T09:09:00.840Z,9.81
2022-09-28T09:10:00.962Z,9.96
2022-09-28T09:11:00.406Z,10.11
2022-09-28T09:12:00.405Z,10.05
2022-09-28T09:13:00.650Z,10.03
2022-09-28T09:14:00.625Z,10.17
2022-09-28T09:15:00.614Z,10.13
2022-09-28T09:16:00.601Z,10.02
2022-09-28T09:17:05.239Z,10.05
2022-09-28T09:18:00.339Z,9.95
2022-09-28T09:19:00.560Z,9.9
2022-09-28T09:20:00.808Z,9.93
2022-09-28T09:21:00.549Z,9.92
2022-09-28T09:22:00.552Z,9.84
2022-09-28T09:23:00.516Z,9.81
2022-09-28T09:24:00.755Z,9.8
2022-09-28T09:25:00.803Z,9.75
2022-09-28T09:26:00.757Z,9.75
2022-09-28T09:27:00.207Z,9.75
2022-09-28T09:28:00.202Z,9.64
2022-09-28T09:29:00.441Z,9.71
2022-09-28T09:30:00.424Z,9.7
2022-09-28T09:31:00.819Z,9.75
2022-09-28T09:32:00.394Z,9.81
2022-09-28T09:33:00.389Z,9.92
2022-09-28T09:34:00.642Z,9.84
2022-09-28T09:35:00.360Z,9.81
2022-09-28T09:36:00.344Z,9.81
2022-09-28T09:37:00.592Z,9.77
2022-09-28T09:38:03.427Z,9.7
2022-09-28T09:39:00.056Z,9.62
2022-09-28T09:40:00.554Z,9.52
2022-09-28T09:41:00.974Z,9.44
2022-09-28T09:42:00.315Z,9.44
2022-09-28T09:43:00.564Z,9.37
2022-09-28T09:44:00.251Z,9.3
2022-09-28T09:45:00.239Z,9.19
2022-09-28T09:46:00.663Z,9.17
2022-09-28T09:47:00.214Z,9.09
2022-09-28T09:48:00.197Z,9.04
2022-09-28T09:48:59.929Z,9.05
2022-09-28T09:50:03.858Z,9
2022-09-28T09:51:00.173Z,8.92
2022-09-28T09:52:00.148Z,8.85
2022-09-28T09:53:00.138Z,8.77
2022-09-28T09:54:00.202Z,8.68
2022-09-28T09:55:00.371Z,8.67
2022-09-28T09:55:59.841Z,8.65
2022-09-28T09:57:00.394Z,8.64
2022-09-28T09:58:00.147Z,8.72
2022-09-28T09:59:00.054Z,8.8
2022-09-28T10:00:00.308Z,8.94
2022-09-28T10:01:00.424Z,9.04
2022-09-28T10:02:00.181Z,9.3
2022-09-28T10:03:00.459Z,9.44
2022-09-28T10:04:00.562Z,9.72
2022-09-28T10:05:00.179Z,10.03
2022-09-28T10:05:59.971Z,10.28
2022-09-28T10:07:00.208Z,10.47
2022-09-28T10:07:59.949Z,10.59
2022-09-28T10:08:59.926Z,10.55
2022-09-28T10:10:00.192Z,10.36
2022-09-28T10:11:00.170Z,10.38
2022-09-28T10:12:00.150Z,10.32
2022-09-28T10:13:00.198Z,10.41
2022-09-28T10:13:59.912Z,10.32
2022-09-28T10:15:00.137Z,10.26
2022-09-28T10:16:00.102Z,10.29
2022-09-28T10:17:00.290Z,10.31
2022-09-28T10:17:59.817Z,10.25
2022-09-28T10:19:00.064Z,10.15
2022-09-28T10:19:59.540Z,10.14
2022-09-28T10:21:00.037Z,10.26
2022-09-28T10:22:00.028Z,10.35
2022-09-28T10:22:59.753Z,10.44
2022-09-28T10:24:00.032Z,10.51
2022-09-28T10:24:59.817Z,10.51
2022-09-28T10:25:59.719Z,10.44
2022-09-28T10:26:59.705Z,10.31
2022-09-28T10:27:59.954Z,10.31
2022-09-28T10:28:59.988Z,10.36
2022-09-28T10:29:59.700Z,10.39
2022-09-28T10:31:00.125Z,10.36
2022-09-28T10:31:59.394Z,10.35
2022-09-28T10:32:59.526Z,10.39
2022-09-28T10:33:59.883Z,10.38
2022-09-28T10:34:59.615Z,10.39
2022-09-28T10:35:59.974Z,10.41
2022-09-28T10:36:59.859Z,10.39
2022-09-28T10:37:59.350Z,10.31
2022-09-28T10:38:59.562Z,10.29
2022-09-28T10:39:59.620Z,10.23
2022-09-28T10:41:00.444Z,10.31
2022-09-28T10:41:59.860Z,10.14
2022-09-28T10:42:59.860Z,10.17
2022-09-28T10:44:02.727Z,9.96
2022-09-28T10:44:59.819Z,10.07
2022-09-28T10:46:00.355Z,9.92
2022-09-28T10:46:59.797Z,10
2022-09-28T10:47:59.809Z,9.93
2022-09-28T10:48:59.774Z,9.92
2022-09-28T10:50:00.014Z,9.9
2022-09-28T10:51:00.007Z,9.89
2022-09-28T10:51:59.475Z,9.92
2022-09-28T10:52:59.722Z,9.92
2022-09-28T10:53:59.710Z,10.02
2022-09-28T10:54:59.957Z,10.02
2022-09-28T10:55:59.944Z,10.25
2022-09-28T10:56:59.680Z,10.39
2022-09-28T10:57:59.407Z,10.52
2022-09-28T10:58:59.647Z,10.67
2022-09-28T10:59:59.937Z,10.72
2022-09-28T11:00:59.524Z,11.06
2022-09-28T11:01:59.964Z,11.51
2022-09-28T11:03:00.101Z,11.78
2022-09-28T11:03:59.865Z,12.1
2022-09-28T11:04:59.321Z,12.33
2022-09-28T11:05:59.820Z,12.51
2022-09-28T11:07:59.294Z,12.63
2022-09-28T11:08:59.786Z,12.51
2022-09-28T11:09:59.778Z,12.28
2022-09-28T11:10:59.508Z,12.31
2022-09-28T11:11:59.760Z,12.23
2022-09-28T11:12:59.489Z,12.1
2022-09-28T11:13:59.736Z,12.04
2022-09-28T11:14:59.464Z,11.81
2022-09-28T11:15:59.510Z,11.7
2022-09-28T11:16:59.677Z,11.46
2022-09-28T11:17:59.717Z,11.06
2022-09-28T11:18:59.427Z,10.39
2022-09-28T11:19:59.157Z,9.93
2022-09-28T11:20:59.671Z,9.55
2022-09-28T11:21:59.137Z,9.08
2022-09-28T11:22:59.379Z,8.95
2022-09-28T11:23:59.367Z,8.68
2022-09-28T11:24:59.353Z,8.64
2022-09-28T11:25:59.602Z,8.61
2022-09-28T11:26:59.590Z,8.57
2022-09-28T11:27:59.317Z,8.47
2022-09-28T11:28:59.307Z,8.46
2022-09-28T11:29:59.546Z,8.39
2022-09-28T11:30:59.461Z,8.36
2022-09-28T11:31:59.410Z,8.31
2022-09-28T11:32:59.514Z,8.24
2022-09-28T11:33:59.285Z,8.25
2022-09-28T11:35:04.200Z,8.28
2022-09-28T11:35:59.249Z,8.35
2022-09-28T11:37:04.343Z,8.34
2022-09-28T11:37:59.189Z,8.34
2022-09-28T11:38:58.916Z,8.34
2022-09-28T11:39:59.428Z,8.34
2022-09-28T11:40:59.444Z,8.31
2022-09-28T11:41:59.133Z,8.39
2022-09-28T11:42:59.284Z,8.34
2022-09-28T11:43:59.103Z,8.35
2022-09-28T11:44:59.088Z,8.34
2022-09-28T11:45:59.639Z,8.28
2022-09-28T11:46:59.057Z,8.29
2022-09-28T11:47:59.357Z,8.22
2022-09-28T11:48:59.041Z,8.29
2022-09-28T11:49:59.046Z,8.26
2022-09-28T11:50:59.005Z,8.49
2022-09-28T11:51:59.250Z,8.5
2022-09-28T11:52:59.240Z,8.62
2022-09-28T11:53:59.224Z,8.72
2022-09-28T11:54:58.956Z,8.83
2022-09-28T11:55:58.933Z,8.98
2022-09-28T11:56:59.188Z,9.01
2022-09-28T11:57:59.170Z,9.21
2022-09-28T11:58:58.898Z,9.45
2022-09-28T11:59:59.138Z,9.47
2022-09-28T12:00:58.612Z,9.53
2022-09-28T12:01:59.178Z,9.71
2022-09-28T12:02:59.588Z,9.81
2022-09-28T12:03:59.136Z,10.07
2022-09-28T12:04:58.818Z,10.15
2022-09-28T12:05:58.827Z,10.17
2022-09-28T12:06:59.104Z,10.25
2022-09-28T12:07:59.097Z,10.33
2022-09-28T12:08:59.079Z,10.31
2022-09-28T12:09:59.086Z,10.14
2022-09-28T12:10:59.046Z,10.11
2022-09-28T12:11:59.038Z,10.05
2022-09-28T12:12:58.786Z,9.98
2022-09-28T12:13:58.757Z,9.9
2022-09-28T12:14:58.750Z,9.8
2022-09-28T12:17:08.176Z,9.72
2022-09-28T12:17:25.518Z,9.74
2022-09-28T12:18:25.095Z,9.59
2022-09-28T12:19:25.168Z,9.52
2022-09-28T12:20:24.815Z,9.44
2022-09-28T12:21:24.846Z,9.42
2022-09-28T12:22:25.051Z,9.32
2022-09-28T12:23:25.031Z,9.23
2022-09-28T12:24:24.500Z,9.2
2022-09-28T12:25:24.744Z,9.03
2022-09-28T12:26:24.986Z,9
2022-09-28T12:27:24.463Z,9.12
2022-09-28T12:28:24.449Z,9.04
2022-09-28T12:29:24.702Z,8.98
2022-09-28T12:30:24.422Z,9.01
2022-09-28T12:31:24.868Z,9.03
2022-09-28T12:32:24.661Z,9.16
2022-09-28T12:33:24.902Z,9.2
2022-09-28T12:34:24.629Z,9.05
2022-09-28T12:35:24.665Z,9.04
2022-09-28T12:36:24.873Z,9.08
2022-09-28T12:37:24.874Z,9.05
2022-09-28T12:38:24.320Z,9.01
2022-09-28T12:39:59.325Z,9.24
2022-09-28T12:40:24.862Z,9.35
2022-09-28T12:41:24.541Z,9.47
2022-09-28T12:42:24.526Z,9.53
2022-09-28T12:43:24.765Z,9.6
2022-09-28T12:44:24.491Z,9.6
2022-09-28T12:45:24.499Z,9.55
2022-09-28T12:46:24.457Z,9.57
2022-09-28T12:47:24.484Z,9.6
2022-09-28T12:48:24.698Z,9.64
2022-09-28T12:50:41.709Z,9.6
2022-09-28T12:51:05.005Z,9.66
2022-09-28T12:52:04.106Z,9.59
2022-09-28T12:53:07.834Z,9.71
2022-09-28T12:54:04.085Z,9.66
2022-09-28T12:55:03.825Z,9.74
2022-09-28T12:56:03.813Z,9.82
2022-09-28T12:57:03.535Z,9.93
2022-09-28T12:58:04.036Z,9.95
2022-09-28T12:59:04.018Z,9.98
2022-09-28T13:00:04.170Z,9.98
2022-09-28T13:01:03.785Z,9.98
2022-09-28T13:02:03.714Z,10.03
2022-09-28T13:03:03.914Z,10.08
2022-09-28T13:04:03.949Z,10.05
2022-09-28T13:05:03.513Z,9.98
2022-09-28T13:06:03.937Z,10.07
2022-09-28T13:07:03.962Z,10.05
2022-09-28T13:08:03.899Z,10
2022-09-28T13:09:03.672Z,9.93
2022-09-28T13:10:03.620Z,9.98
2022-09-28T13:11:09.696Z,9.89
2022-09-28T13:12:03.593Z,9.81
2022-09-28T13:13:03.840Z,9.78
2022-09-28T13:14:03.566Z,9.72
2022-09-28T13:15:03.559Z,9.75
2022-09-28T13:16:04.078Z,9.75
2022-09-28T13:17:05.416Z,9.75
2022-09-28T13:18:03.784Z,9.72
2022-09-28T13:19:03.782Z,9.74
2022-09-28T13:20:03.510Z,9.72
2022-09-28T13:21:03.821Z,9.77
2022-09-28T13:22:03.726Z,9.77
2022-09-28T13:23:03.793Z,9.64
2022-09-28T13:24:34.849Z,9.77
2022-09-28T13:25:03.468Z,9.72
2022-09-28T13:26:03.692Z,9.75
2022-09-28T13:27:03.406Z,9.78
2022-09-28T13:28:03.141Z,9.8
2022-09-28T13:29:03.640Z,9.92
2022-09-28T13:30:05.661Z,9.9
2022-09-28T13:31:03.348Z,9.92
2022-09-28T13:32:03.349Z,9.93
2022-09-28T13:33:03.331Z,10.03
2022-09-28T13:34:03.317Z,10.25
2022-09-28T13:35:03.056Z,10.41
2022-09-28T13:36:03.291Z,10.52
2022-09-28T13:37:03.041Z,10.58
2022-09-28T13:38:03.016Z,10.58